This is the latest recevied weather packets stored in our database for station/object DO2KTE-13. If no packets are shown the sender has not sent any weather packets the latest 10 day(s).
| Time | Temp. | Humidity | Pressure | Rain* | Wind** | Luminosity | Snow |
|---|---|---|---|---|---|---|---|
| 1788148800 | 56° F | 73% | 756 mmHg | - | - | - | - |
| 1788116400 | 64° F | 61% | 756.5 mmHg | - | - | - | - |
| 1788105600 | 75° F | 51% | 756 mmHg | - | - | - | - |
| 1788094800 | 75° F | 58% | 755.8 mmHg | - | - | - | - |
| 1788084000 | 63° F | 70% | 756.3 mmHg | - | - | - | - |
| 1788073200 | 65° F | 67% | 755.2 mmHg | - | - | - | - |
| 1788062400 | 63° F | 65% | 754.8 mmHg | - | - | - | - |
| 1788030000 | 67° F | 55% | 755.8 mmHg | - | - | - | - |
| 1788019200 | 74° F | 48% | 756.1 mmHg | - | - | - | - |
| 1788008400 | 73° F | 53% | 756.3 mmHg | - | - | - | - |
| 1787997600 | 68° F | 59% | 757.3 mmHg | - | - | - | - |
| 1787986800 | 60° F | 74% | 756.9 mmHg | - | - | - | - |
| 1787976000 | 56° F | 75% | 756.5 mmHg | - | - | - | - |
| 1787943600 | 61° F | 70% | 755.2 mmHg | - | - | - | - |
| 1787932800 | 70° F | 69% | 753.6 mmHg | - | - | - | - |
| 1787922000 | 67° F | 73% | 754 mmHg | - | - | - | - |
| 1787911200 | 74° F | 65% | 753 mmHg | - | - | - | - |
| 1787900400 | 69° F | 70% | 752.8 mmHg | - | - | - | - |
| 1787889600 | 64° F | 73% | 753.4 mmHg | - | - | - | - |
| 1787857200 | 74° F | 57% | 755.8 mmHg | - | - | - | - |
| 1787846400 | 85° F | 48% | 756.3 mmHg | - | - | - | - |
| 1787835600 | 83° F | 58% | 756.7 mmHg | - | - | - | - |
| 1787824800 | 70° F | 77% | 758.3 mmHg | - | - | - | - |
| 1787814000 | 56° F | 81% | 759 mmHg | - | - | - | - |
| 1787803200 | 54° F | 80% | 759.4 mmHg | - | - | - | - |
* Rain since midnight (hover to see other rain measurements)
** Current wind speed in m/s (hover to see current wind gust speed)